sensor_id;sensor_type;location;lat;lon;timestamp;P1;durP1;ratioP1;P2;durP2;ratioP2
66669;SDS011;53568;52.164;4.472;2023-04-01T00:00:55;28.86;;;18.19;;
66669;SDS011;53568;52.164;4.472;2023-04-01T00:03:22;27.62;;;17.35;;
66669;SDS011;53568;52.164;4.472;2023-04-01T00:05:49;29.96;;;18.48;;
66669;SDS011;53568;52.164;4.472;2023-04-01T00:08:14;29.03;;;17.97;;
66669;SDS011;53568;52.164;4.472;2023-04-01T00:10:40;27.74;;;17.33;;
66669;SDS011;53568;52.164;4.472;2023-04-01T00:13:06;29.59;;;18.18;;
66669;SDS011;53568;52.164;4.472;2023-04-01T00:15:32;28.34;;;17.56;;
66669;SDS011;53568;52.164;4.472;2023-04-01T00:17:58;25.06;;;15.97;;
66669;SDS011;53568;52.164;4.472;2023-04-01T00:20:25;24.15;;;15.36;;
66669;SDS011;53568;52.164;4.472;2023-04-01T00:22:51;23.92;;;15.21;;
66669;SDS011;53568;52.164;4.472;2023-04-01T00:25:16;23.24;;;14.74;;
66669;SDS011;53568;52.164;4.472;2023-04-01T00:27:43;23.49;;;14.85;;
66669;SDS011;53568;52.164;4.472;2023-04-01T00:30:09;21.24;;;13.49;;
66669;SDS011;53568;52.164;4.472;2023-04-01T00:32:35;19.53;;;12.64;;
66669;SDS011;53568;52.164;4.472;2023-04-01T00:35:01;19.02;;;12.56;;
66669;SDS011;53568;52.164;4.472;2023-04-01T00:37:27;20.80;;;13.64;;
66669;SDS011;53568;52.164;4.472;2023-04-01T00:39:53;18.98;;;12.29;;
66669;SDS011;53568;52.164;4.472;2023-04-01T00:42:19;18.45;;;12.33;;
66669;SDS011;53568;52.164;4.472;2023-04-01T00:44:47;18.06;;;11.89;;
66669;SDS011;53568;52.164;4.472;2023-04-01T00:47:17;17.27;;;11.60;;
66669;SDS011;53568;52.164;4.472;2023-04-01T00:49:45;14.73;;;9.86;;
66669;SDS011;53568;52.164;4.472;2023-04-01T00:52:15;13.45;;;9.05;;
66669;SDS011;53568;52.164;4.472;2023-04-01T00:54:46;11.18;;;7.76;;
66669;SDS011;53568;52.164;4.472;2023-04-01T00:57:16;10.71;;;7.61;;
66669;SDS011;53568;52.164;4.472;2023-04-01T01:00:00;10.63;;;7.48;;
66669;SDS011;53568;52.164;4.472;2023-04-01T01:02:25;10.89;;;7.65;;
66669;SDS011;53568;52.164;4.472;2023-04-01T01:04:51;10.49;;;7.67;;
66669;SDS011;53568;52.164;4.472;2023-04-01T01:07:20;9.34;;;7.19;;
66669;SDS011;53568;52.164;4.472;2023-04-01T01:12:44;8.67;;;6.86;;
66669;SDS011;53568;52.164;4.472;2023-04-01T01:18:01;8.19;;;6.76;;
66669;SDS011;53568;52.164;4.472;2023-04-01T01:23:46;7.66;;;6.57;;
66669;SDS011;53568;52.164;4.472;2023-04-01T01:34:02;9.92;;;7.69;;
66669;SDS011;53568;52.164;4.472;2023-04-01T01:36:55;9.96;;;7.69;;
66669;SDS011;53568;52.164;4.472;2023-04-01T01:39:26;10.17;;;8.09;;
66669;SDS011;53568;52.164;4.472;2023-04-01T01:41:57;10.61;;;8.33;;
66669;SDS011;53568;52.164;4.472;2023-04-01T01:44:29;10.44;;;8.43;;
66669;SDS011;53568;52.164;4.472;2023-04-01T01:46:57;11.71;;;9.12;;
66669;SDS011;53568;52.164;4.472;2023-04-01T01:49:25;11.98;;;9.47;;
66669;SDS011;53568;52.164;4.472;2023-04-01T01:51:55;12.97;;;9.88;;
66669;SDS011;53568;52.164;4.472;2023-04-01T01:54:21;14.47;;;10.54;;
66669;SDS011;53568;52.164;4.472;2023-04-01T01:56:48;13.74;;;10.17;;
66669;SDS011;53568;52.164;4.472;2023-04-01T01:59:20;12.91;;;9.74;;
66669;SDS011;53568;52.164;4.472;2023-04-01T02:01:51;11.30;;;9.06;;
66669;SDS011;53568;52.164;4.472;2023-04-01T02:04:21;10.66;;;8.42;;
66669;SDS011;53568;52.164;4.472;2023-04-01T02:06:49;10.06;;;8.14;;
66669;SDS011;53568;52.164;4.472;2023-04-01T02:09:23;8.44;;;7.17;;
66669;SDS011;53568;52.164;4.472;2023-04-01T02:11:49;7.76;;;6.56;;
66669;SDS011;53568;52.164;4.472;2023-04-01T02:19:39;11.11;;;9.65;;
66669;SDS011;53568;52.164;4.472;2023-04-01T02:22:14;11.55;;;10.35;;
66669;SDS011;53568;52.164;4.472;2023-04-01T02:24:45;13.87;;;11.96;;
66669;SDS011;53568;52.164;4.472;2023-04-01T02:27:11;15.29;;;13.02;;
66669;SDS011;53568;52.164;4.472;2023-04-01T02:29:38;15.51;;;13.58;;
66669;SDS011;53568;52.164;4.472;2023-04-01T02:32:04;14.76;;;13.29;;
66669;SDS011;53568;52.164;4.472;2023-04-01T02:34:32;14.81;;;13.30;;
66669;SDS011;53568;52.164;4.472;2023-04-01T02:36:58;15.62;;;14.23;;
66669;SDS011;53568;52.164;4.472;2023-04-01T02:39:24;17.15;;;15.57;;
66669;SDS011;53568;52.164;4.472;2023-04-01T02:41:51;16.29;;;14.85;;
66669;SDS011;53568;52.164;4.472;2023-04-01T02:44:17;15.21;;;14.03;;
66669;SDS011;53568;52.164;4.472;2023-04-01T02:46:43;14.17;;;13.33;;
66669;SDS011;53568;52.164;4.472;2023-04-01T02:49:08;15.38;;;14.38;;
66669;SDS011;53568;52.164;4.472;2023-04-01T02:51:34;14.60;;;13.64;;
66669;SDS011;53568;52.164;4.472;2023-04-01T02:54:00;14.39;;;13.55;;
66669;SDS011;53568;52.164;4.472;2023-04-01T02:56:26;14.63;;;13.68;;
66669;SDS011;53568;52.164;4.472;2023-04-01T02:58:52;13.77;;;13.09;;
66669;SDS011;53568;52.164;4.472;2023-04-01T03:01:19;13.34;;;12.24;;
66669;SDS011;53568;52.164;4.472;2023-04-01T03:03:44;12.77;;;11.75;;
66669;SDS011;53568;52.164;4.472;2023-04-01T03:06:11;14.16;;;13.05;;
66669;SDS011;53568;52.164;4.472;2023-04-01T03:08:39;15.44;;;14.05;;
66669;SDS011;53568;52.164;4.472;2023-04-01T03:11:05;17.12;;;15.07;;
66669;SDS011;53568;52.164;4.472;2023-04-01T03:13:31;17.40;;;15.23;;
66669;SDS011;53568;52.164;4.472;2023-04-01T03:15:57;14.78;;;13.28;;
66669;SDS011;53568;52.164;4.472;2023-04-01T03:18:23;13.50;;;12.14;;
66669;SDS011;53568;52.164;4.472;2023-04-01T03:20:48;10.47;;;9.49;;
66669;SDS011;53568;52.164;4.472;2023-04-01T03:23:14;9.52;;;8.77;;
66669;SDS011;53568;52.164;4.472;2023-04-01T03:25:41;9.79;;;9.00;;
66669;SDS011;53568;52.164;4.472;2023-04-01T03:28:07;10.38;;;9.51;;
66669;SDS011;53568;52.164;4.472;2023-04-01T03:30:32;11.07;;;10.23;;
66669;SDS011;53568;52.164;4.472;2023-04-01T03:32:58;13.05;;;12.00;;
66669;SDS011;53568;52.164;4.472;2023-04-01T03:35:25;13.94;;;12.76;;
66669;SDS011;53568;52.164;4.472;2023-04-01T03:37:51;15.20;;;13.94;;
66669;SDS011;53568;52.164;4.472;2023-04-01T03:40:17;15.87;;;14.41;;
66669;SDS011;53568;52.164;4.472;2023-04-01T03:42:43;15.92;;;14.47;;
66669;SDS011;53568;52.164;4.472;2023-04-01T03:45:09;16.76;;;15.14;;
66669;SDS011;53568;52.164;4.472;2023-04-01T03:47:36;18.21;;;16.42;;
66669;SDS011;53568;52.164;4.472;2023-04-01T03:50:02;21.14;;;18.36;;
66669;SDS011;53568;52.164;4.472;2023-04-01T03:52:29;21.47;;;18.85;;
66669;SDS011;53568;52.164;4.472;2023-04-01T03:54:55;20.10;;;18.14;;
66669;SDS011;53568;52.164;4.472;2023-04-01T03:57:22;18.10;;;16.65;;
66669;SDS011;53568;52.164;4.472;2023-04-01T03:59:48;17.76;;;16.28;;
66669;SDS011;53568;52.164;4.472;2023-04-01T04:02:14;15.79;;;14.94;;
66669;SDS011;53568;52.164;4.472;2023-04-01T04:04:39;16.37;;;15.58;;
66669;SDS011;53568;52.164;4.472;2023-04-01T04:07:06;15.59;;;14.99;;
66669;SDS011;53568;52.164;4.472;2023-04-01T04:09:32;15.89;;;15.20;;
66669;SDS011;53568;52.164;4.472;2023-04-01T04:11:58;15.44;;;14.77;;
66669;SDS011;53568;52.164;4.472;2023-04-01T04:14:24;16.52;;;15.64;;
66669;SDS011;53568;52.164;4.472;2023-04-01T04:16:49;16.33;;;15.77;;
66669;SDS011;53568;52.164;4.472;2023-04-01T04:19:15;15.16;;;14.72;;
66669;SDS011;53568;52.164;4.472;2023-04-01T04:21:41;15.84;;;15.26;;
66669;SDS011;53568;52.164;4.472;2023-04-01T04:24:07;16.38;;;15.53;;
66669;SDS011;53568;52.164;4.472;2023-04-01T04:26:33;17.50;;;16.46;;
66669;SDS011;53568;52.164;4.472;2023-04-01T04:29:00;16.98;;;16.32;;
66669;SDS011;53568;52.164;4.472;2023-04-01T04:31:26;17.15;;;16.43;;
66669;SDS011;53568;52.164;4.472;2023-04-01T04:33:52;17.04;;;16.39;;
66669;SDS011;53568;52.164;4.472;2023-04-01T04:36:19;17.28;;;16.41;;
66669;SDS011;53568;52.164;4.472;2023-04-01T04:38:46;17.50;;;16.49;;
66669;SDS011;53568;52.164;4.472;2023-04-01T04:41:13;17.49;;;16.30;;
66669;SDS011;53568;52.164;4.472;2023-04-01T04:43:40;17.37;;;16.14;;
66669;SDS011;53568;52.164;4.472;2023-04-01T04:46:07;16.64;;;15.40;;
66669;SDS011;53568;52.164;4.472;2023-04-01T04:48:34;16.75;;;15.57;;
66669;SDS011;53568;52.164;4.472;2023-04-01T04:51:00;17.19;;;15.77;;
66669;SDS011;53568;52.164;4.472;2023-04-01T04:53:26;18.07;;;16.43;;
66669;SDS011;53568;52.164;4.472;2023-04-01T04:55:52;18.58;;;16.74;;
66669;SDS011;53568;52.164;4.472;2023-04-01T04:58:18;20.15;;;17.74;;
66669;SDS011;53568;52.164;4.472;2023-04-01T05:00:45;20.24;;;17.91;;
66669;SDS011;53568;52.164;4.472;2023-04-01T05:03:12;20.11;;;17.53;;
66669;SDS011;53568;52.164;4.472;2023-04-01T05:05:38;20.27;;;17.76;;
66669;SDS011;53568;52.164;4.472;2023-04-01T05:08:05;21.23;;;18.32;;
66669;SDS011;53568;52.164;4.472;2023-04-01T05:10:31;20.17;;;17.77;;
66669;SDS011;53568;52.164;4.472;2023-04-01T05:12:57;19.22;;;17.06;;
66669;SDS011;53568;52.164;4.472;2023-04-01T05:15:23;18.64;;;16.73;;
66669;SDS011;53568;52.164;4.472;2023-04-01T05:17:49;16.09;;;14.72;;
66669;SDS011;53568;52.164;4.472;2023-04-01T05:20:15;17.90;;;16.12;;
66669;SDS011;53568;52.164;4.472;2023-04-01T05:22:42;17.07;;;15.23;;
66669;SDS011;53568;52.164;4.472;2023-04-01T05:25:08;15.88;;;14.52;;
66669;SDS011;53568;52.164;4.472;2023-04-01T05:27:34;16.43;;;15.06;;
66669;SDS011;53568;52.164;4.472;2023-04-01T05:30:00;16.21;;;14.84;;
66669;SDS011;53568;52.164;4.472;2023-04-01T05:32:26;15.57;;;14.41;;
66669;SDS011;53568;52.164;4.472;2023-04-01T05:34:52;14.54;;;13.46;;
66669;SDS011;53568;52.164;4.472;2023-04-01T05:37:18;14.37;;;13.44;;
66669;SDS011;53568;52.164;4.472;2023-04-01T05:39:44;14.03;;;13.29;;
66669;SDS011;53568;52.164;4.472;2023-04-01T05:42:09;15.12;;;14.02;;
66669;SDS011;53568;52.164;4.472;2023-04-01T05:44:35;14.92;;;13.92;;
66669;SDS011;53568;52.164;4.472;2023-04-01T05:47:01;15.07;;;14.22;;
66669;SDS011;53568;52.164;4.472;2023-04-01T05:49:27;15.55;;;14.46;;
66669;SDS011;53568;52.164;4.472;2023-04-01T05:51:53;15.04;;;14.18;;
66669;SDS011;53568;52.164;4.472;2023-04-01T05:54:19;16.24;;;14.97;;
66669;SDS011;53568;52.164;4.472;2023-04-01T05:56:45;17.08;;;15.39;;
66669;SDS011;53568;52.164;4.472;2023-04-01T05:59:11;17.15;;;15.47;;
66669;SDS011;53568;52.164;4.472;2023-04-01T06:01:37;18.43;;;16.14;;
66669;SDS011;53568;52.164;4.472;2023-04-01T06:04:03;18.68;;;15.93;;
66669;SDS011;53568;52.164;4.472;2023-04-01T06:06:29;20.05;;;16.74;;
66669;SDS011;53568;52.164;4.472;2023-04-01T06:08:58;19.14;;;16.40;;
66669;SDS011;53568;52.164;4.472;2023-04-01T06:11:35;19.20;;;16.40;;
66669;SDS011;53568;52.164;4.472;2023-04-01T06:19:39;16.86;;;14.67;;
66669;SDS011;53568;52.164;4.472;2023-04-01T06:22:30;15.96;;;14.20;;
66669;SDS011;53568;52.164;4.472;2023-04-01T06:33:35;12.98;;;12.03;;
66669;SDS011;53568;52.164;4.472;2023-04-01T06:53:12;13.01;;;12.17;;
66669;SDS011;53568;52.164;4.472;2023-04-01T06:55:49;13.99;;;12.81;;
66669;SDS011;53568;52.164;4.472;2023-04-01T06:58:36;15.52;;;13.91;;
66669;SDS011;53568;52.164;4.472;2023-04-01T07:01:08;15.19;;;13.86;;
66669;SDS011;53568;52.164;4.472;2023-04-01T07:06:54;16.02;;;13.59;;
66669;SDS011;53568;52.164;4.472;2023-04-01T07:09:31;16.96;;;14.06;;
66669;SDS011;53568;52.164;4.472;2023-04-01T07:12:01;14.42;;;12.75;;
66669;SDS011;53568;52.164;4.472;2023-04-01T07:14:36;15.26;;;13.22;;
66669;SDS011;53568;52.164;4.472;2023-04-01T07:17:08;16.08;;;13.56;;
66669;SDS011;53568;52.164;4.472;2023-04-01T07:19:50;15.41;;;13.11;;
66669;SDS011;53568;52.164;4.472;2023-04-01T07:22:27;15.19;;;13.31;;
66669;SDS011;53568;52.164;4.472;2023-04-01T07:25:01;14.20;;;12.71;;
66669;SDS011;53568;52.164;4.472;2023-04-01T07:27:36;13.57;;;12.14;;
66669;SDS011;53568;52.164;4.472;2023-04-01T07:30:03;12.33;;;11.38;;
66669;SDS011;53568;52.164;4.472;2023-04-01T07:32:45;13.18;;;12.18;;
66669;SDS011;53568;52.164;4.472;2023-04-01T07:35:39;13.45;;;12.34;;
66669;SDS011;53568;52.164;4.472;2023-04-01T07:38:34;14.02;;;12.96;;
66669;SDS011;53568;52.164;4.472;2023-04-01T07:44:28;14.90;;;13.74;;
66669;SDS011;53568;52.164;4.472;2023-04-01T07:47:08;14.57;;;13.28;;
66669;SDS011;53568;52.164;4.472;2023-04-01T07:55:03;15.29;;;14.07;;
66669;SDS011;53568;52.164;4.472;2023-04-01T07:57:56;14.39;;;13.63;;
66669;SDS011;53568;52.164;4.472;2023-04-01T08:00:33;14.61;;;13.87;;
66669;SDS011;53568;52.164;4.472;2023-04-01T08:06:02;14.48;;;13.98;;
66669;SDS011;53568;52.164;4.472;2023-04-01T08:09:09;15.13;;;14.33;;
66669;SDS011;53568;52.164;4.472;2023-04-01T08:14:21;14.02;;;13.13;;
66669;SDS011;53568;52.164;4.472;2023-04-01T08:16:56;14.55;;;13.67;;
66669;SDS011;53568;52.164;4.472;2023-04-01T08:19:42;15.01;;;14.35;;
66669;SDS011;53568;52.164;4.472;2023-04-01T08:22:23;15.90;;;14.82;;
66669;SDS011;53568;52.164;4.472;2023-04-01T08:24:54;15.87;;;14.66;;
66669;SDS011;53568;52.164;4.472;2023-04-01T08:27:30;16.92;;;15.55;;
66669;SDS011;53568;52.164;4.472;2023-04-01T08:30:16;18.10;;;16.42;;
66669;SDS011;53568;52.164;4.472;2023-04-01T08:32:53;17.95;;;16.18;;
66669;SDS011;53568;52.164;4.472;2023-04-01T08:37:57;18.35;;;16.26;;
66669;SDS011;53568;52.164;4.472;2023-04-01T09:01:46;21.56;;;16.99;;
66669;SDS011;53568;52.164;4.472;2023-04-01T09:07:25;19.48;;;15.87;;
66669;SDS011;53568;52.164;4.472;2023-04-01T09:15:37;11.89;;;10.75;;
66669;SDS011;53568;52.164;4.472;2023-04-01T09:18:42;11.71;;;10.54;;
66669;SDS011;53568;52.164;4.472;2023-04-01T09:40:15;15.99;;;14.79;;
66669;SDS011;53568;52.164;4.472;2023-04-01T09:56:23;24.02;;;21.19;;
66669;SDS011;53568;52.164;4.472;2023-04-01T10:01:53;20.37;;;17.93;;
66669;SDS011;53568;52.164;4.472;2023-04-01T10:18:32;23.40;;;19.25;;
66669;SDS011;53568;52.164;4.472;2023-04-01T10:24:31;21.89;;;18.65;;
66669;SDS011;53568;52.164;4.472;2023-04-01T10:29:24;21.13;;;18.13;;
66669;SDS011;53568;52.164;4.472;2023-04-01T10:32:22;17.63;;;14.96;;
66669;SDS011;53568;52.164;4.472;2023-04-01T10:35:18;17.63;;;15.00;;
66669;SDS011;53568;52.164;4.472;2023-04-01T10:43:50;17.48;;;15.44;;
66669;SDS011;53568;52.164;4.472;2023-04-01T10:56:21;16.16;;;14.53;;
66669;SDS011;53568;52.164;4.472;2023-04-01T10:58:41;16.08;;;14.70;;
66669;SDS011;53568;52.164;4.472;2023-04-01T11:13:11;17.36;;;15.35;;
66669;SDS011;53568;52.164;4.472;2023-04-01T11:21:56;15.31;;;13.53;;
66669;SDS011;53568;52.164;4.472;2023-04-01T11:41:13;12.28;;;11.26;;
66669;SDS011;53568;52.164;4.472;2023-04-01T11:46:28;11.69;;;10.80;;
66669;SDS011;53568;52.164;4.472;2023-04-01T11:59:38;15.03;;;13.80;;
66669;SDS011;53568;52.164;4.472;2023-04-01T12:05:00;16.01;;;14.39;;
66669;SDS011;53568;52.164;4.472;2023-04-01T12:16:24;15.94;;;14.33;;
66669;SDS011;53568;52.164;4.472;2023-04-01T12:30:46;15.12;;;13.55;;
66669;SDS011;53568;52.164;4.472;2023-04-01T12:35:58;13.36;;;12.25;;
66669;SDS011;53568;52.164;4.472;2023-04-01T12:47:43;10.69;;;10.19;;
66669;SDS011;53568;52.164;4.472;2023-04-01T12:55:48;9.26;;;8.81;;
66669;SDS011;53568;52.164;4.472;2023-04-01T13:07:00;7.15;;;6.78;;
66669;SDS011;53568;52.164;4.472;2023-04-01T13:20:57;7.19;;;6.98;;
66669;SDS011;53568;52.164;4.472;2023-04-01T13:23:37;7.55;;;7.17;;
66669;SDS011;53568;52.164;4.472;2023-04-01T13:29:04;7.29;;;6.91;;
66669;SDS011;53568;52.164;4.472;2023-04-01T13:34:23;6.79;;;6.46;;
66669;SDS011;53568;52.164;4.472;2023-04-01T13:39:29;7.90;;;7.05;;
66669;SDS011;53568;52.164;4.472;2023-04-01T13:44:59;7.18;;;6.33;;
66669;SDS011;53568;52.164;4.472;2023-04-01T14:01:12;6.23;;;5.80;;
66669;SDS011;53568;52.164;4.472;2023-04-01T14:07:10;6.61;;;6.12;;
66669;SDS011;53568;52.164;4.472;2023-04-01T14:09:49;6.93;;;6.44;;
66669;SDS011;53568;52.164;4.472;2023-04-01T14:27:56;7.58;;;6.84;;
66669;SDS011;53568;52.164;4.472;2023-04-01T14:41:46;8.40;;;7.61;;
66669;SDS011;53568;52.164;4.472;2023-04-01T14:44:24;7.60;;;7.08;;
66669;SDS011;53568;52.164;4.472;2023-04-01T14:50:09;8.07;;;7.46;;
66669;SDS011;53568;52.164;4.472;2023-04-01T14:52:57;8.12;;;7.54;;
66669;SDS011;53568;52.164;4.472;2023-04-01T14:58:10;8.07;;;7.42;;
66669;SDS011;53568;52.164;4.472;2023-04-01T15:03:30;7.91;;;7.34;;
66669;SDS011;53568;52.164;4.472;2023-04-01T15:17:14;7.51;;;7.27;;
66669;SDS011;53568;52.164;4.472;2023-04-01T15:20:10;8.02;;;7.63;;
66669;SDS011;53568;52.164;4.472;2023-04-01T15:26:09;7.56;;;7.39;;
66669;SDS011;53568;52.164;4.472;2023-04-01T15:28:38;7.52;;;7.40;;
66669;SDS011;53568;52.164;4.472;2023-04-01T15:37:01;8.15;;;7.96;;
66669;SDS011;53568;52.164;4.472;2023-04-01T15:39:53;8.17;;;8.04;;
66669;SDS011;53568;52.164;4.472;2023-04-01T16:01:51;8.23;;;8.20;;
66669;SDS011;53568;52.164;4.472;2023-04-01T16:05:36;7.68;;;7.67;;
66669;SDS011;53568;52.164;4.472;2023-04-01T16:07:48;8.53;;;8.52;;
66669;SDS011;53568;52.164;4.472;2023-04-01T16:13:42;8.71;;;8.66;;
66669;SDS011;53568;52.164;4.472;2023-04-01T16:24:13;8.92;;;8.87;;
66669;SDS011;53568;52.164;4.472;2023-04-01T16:26:47;9.24;;;9.24;;
66669;SDS011;53568;52.164;4.472;2023-04-01T16:29:30;8.56;;;8.56;;
66669;SDS011;53568;52.164;4.472;2023-04-01T16:40:58;8.95;;;8.78;;
66669;SDS011;53568;52.164;4.472;2023-04-01T16:43:45;8.58;;;8.58;;
66669;SDS011;53568;52.164;4.472;2023-04-01T16:51:44;7.98;;;7.98;;
66669;SDS011;53568;52.164;4.472;2023-04-01T16:56:44;7.88;;;7.88;;
66669;SDS011;53568;52.164;4.472;2023-04-01T17:04:28;8.18;;;8.18;;
66669;SDS011;53568;52.164;4.472;2023-04-01T17:12:35;7.62;;;7.62;;
66669;SDS011;53568;52.164;4.472;2023-04-01T17:26:46;7.52;;;7.52;;
66669;SDS011;53568;52.164;4.472;2023-04-01T17:29:25;8.05;;;8.05;;
66669;SDS011;53568;52.164;4.472;2023-04-01T17:32:47;7.72;;;7.72;;
66669;SDS011;53568;52.164;4.472;2023-04-01T17:34:56;7.81;;;7.81;;
66669;SDS011;53568;52.164;4.472;2023-04-01T17:37:51;7.68;;;7.68;;
66669;SDS011;53568;52.164;4.472;2023-04-01T17:43:32;7.53;;;7.53;;
66669;SDS011;53568;52.164;4.472;2023-04-01T17:51:50;7.33;;;7.33;;
66669;SDS011;53568;52.164;4.472;2023-04-01T18:08:17;7.06;;;7.06;;
66669;SDS011;53568;52.164;4.472;2023-04-01T18:21:56;7.23;;;7.23;;
66669;SDS011;53568;52.164;4.472;2023-04-01T18:24:41;7.44;;;7.44;;
66669;SDS011;53568;52.164;4.472;2023-04-01T18:30:44;7.15;;;7.15;;
66669;SDS011;53568;52.164;4.472;2023-04-01T18:38:44;7.36;;;7.36;;
66669;SDS011;53568;52.164;4.472;2023-04-01T18:50:14;7.41;;;7.41;;
66669;SDS011;53568;52.164;4.472;2023-04-01T18:52:44;7.46;;;7.46;;
66669;SDS011;53568;52.164;4.472;2023-04-01T18:57:50;7.63;;;7.63;;
66669;SDS011;53568;52.164;4.472;2023-04-01T19:00:27;7.96;;;7.96;;
66669;SDS011;53568;52.164;4.472;2023-04-01T19:05:41;7.73;;;7.73;;
66669;SDS011;53568;52.164;4.472;2023-04-01T19:11:11;8.06;;;8.06;;
66669;SDS011;53568;52.164;4.472;2023-04-01T19:13:54;8.60;;;8.60;;
66669;SDS011;53568;52.164;4.472;2023-04-01T19:22:22;8.59;;;8.59;;
66669;SDS011;53568;52.164;4.472;2023-04-01T19:25:26;8.81;;;8.81;;
66669;SDS011;53568;52.164;4.472;2023-04-01T19:28:03;9.28;;;9.28;;
66669;SDS011;53568;52.164;4.472;2023-04-01T19:33:30;9.11;;;9.11;;
66669;SDS011;53568;52.164;4.472;2023-04-01T19:36:32;9.55;;;9.55;;
66669;SDS011;53568;52.164;4.472;2023-04-01T19:41:48;10.02;;;10.02;;
66669;SDS011;53568;52.164;4.472;2023-04-01T19:44:34;10.16;;;10.16;;
66669;SDS011;53568;52.164;4.472;2023-04-01T19:47:21;10.78;;;10.78;;
66669;SDS011;53568;52.164;4.472;2023-04-01T19:50:31;11.44;;;11.44;;
66669;SDS011;53568;52.164;4.472;2023-04-01T19:53:14;10.83;;;10.83;;
66669;SDS011;53568;52.164;4.472;2023-04-01T19:55:50;11.55;;;11.55;;
66669;SDS011;53568;52.164;4.472;2023-04-01T20:01:41;12.13;;;12.13;;
66669;SDS011;53568;52.164;4.472;2023-04-01T20:04:19;12.23;;;12.23;;
66669;SDS011;53568;52.164;4.472;2023-04-01T20:07:07;12.82;;;12.82;;
66669;SDS011;53568;52.164;4.472;2023-04-01T20:15:20;13.80;;;13.80;;
66669;SDS011;53568;52.164;4.472;2023-04-01T20:17:46;13.89;;;13.89;;
66669;SDS011;53568;52.164;4.472;2023-04-01T20:20:20;13.87;;;13.87;;
66669;SDS011;53568;52.164;4.472;2023-04-01T20:25:32;13.62;;;13.62;;
66669;SDS011;53568;52.164;4.472;2023-04-01T20:44:31;12.50;;;12.48;;
66669;SDS011;53568;52.164;4.472;2023-04-01T20:47:24;13.44;;;13.44;;
66669;SDS011;53568;52.164;4.472;2023-04-01T20:50:19;13.89;;;13.89;;
66669;SDS011;53568;52.164;4.472;2023-04-01T20:53:15;14.65;;;14.65;;
66669;SDS011;53568;52.164;4.472;2023-04-01T21:17:08;15.02;;;14.94;;
66669;SDS011;53568;52.164;4.472;2023-04-01T21:22:47;14.55;;;14.48;;
66669;SDS011;53568;52.164;4.472;2023-04-01T21:25:40;14.75;;;14.74;;
66669;SDS011;53568;52.164;4.472;2023-04-01T21:37:06;13.62;;;13.62;;
66669;SDS011;53568;52.164;4.472;2023-04-01T21:42:45;12.89;;;12.84;;
66669;SDS011;53568;52.164;4.472;2023-04-01T21:56:37;15.64;;;15.64;;
66669;SDS011;53568;52.164;4.472;2023-04-01T22:10:20;15.15;;;15.05;;
66669;SDS011;53568;52.164;4.472;2023-04-01T22:15:47;13.27;;;13.18;;
66669;SDS011;53568;52.164;4.472;2023-04-01T22:21:59;11.38;;;11.38;;
66669;SDS011;53568;52.164;4.472;2023-04-01T22:27:37;11.60;;;11.60;;
66669;SDS011;53568;52.164;4.472;2023-04-01T22:30:24;11.51;;;11.49;;
66669;SDS011;53568;52.164;4.472;2023-04-01T22:33:07;12.60;;;12.59;;
66669;SDS011;53568;52.164;4.472;2023-04-01T22:41:13;16.92;;;16.92;;
66669;SDS011;53568;52.164;4.472;2023-04-01T22:43:54;16.94;;;16.91;;
66669;SDS011;53568;52.164;4.472;2023-04-01T22:49:11;17.26;;;17.26;;
66669;SDS011;53568;52.164;4.472;2023-04-01T22:52:42;17.56;;;17.55;;
66669;SDS011;53568;52.164;4.472;2023-04-01T22:55:12;17.25;;;17.20;;
66669;SDS011;53568;52.164;4.472;2023-04-01T22:57:51;17.56;;;17.55;;
66669;SDS011;53568;52.164;4.472;2023-04-01T23:05:58;17.27;;;17.27;;
66669;SDS011;53568;52.164;4.472;2023-04-01T23:11:27;18.09;;;18.05;;
66669;SDS011;53568;52.164;4.472;2023-04-01T23:22:21;16.22;;;16.14;;
66669;SDS011;53568;52.164;4.472;2023-04-01T23:27:28;15.78;;;15.78;;
66669;SDS011;53568;52.164;4.472;2023-04-01T23:30:01;15.80;;;15.80;;
66669;SDS011;53568;52.164;4.472;2023-04-01T23:32:28;15.36;;;15.35;;
66669;SDS011;53568;52.164;4.472;2023-04-01T23:34:56;15.32;;;15.31;;
66669;SDS011;53568;52.164;4.472;2023-04-01T23:37:24;15.71;;;15.54;;
66669;SDS011;53568;52.164;4.472;2023-04-01T23:39:55;16.45;;;16.33;;
66669;SDS011;53568;52.164;4.472;2023-04-01T23:42:24;17.27;;;17.11;;
66669;SDS011;53568;52.164;4.472;2023-04-01T23:45:05;16.88;;;16.85;;
66669;SDS011;53568;52.164;4.472;2023-04-01T23:47:42;16.75;;;16.71;;
66669;SDS011;53568;52.164;4.472;2023-04-01T23:50:17;16.79;;;16.71;;
66669;SDS011;53568;52.164;4.472;2023-04-01T23:52:48;16.96;;;16.80;;
66669;SDS011;53568;52.164;4.472;2023-04-01T23:55:24;16.63;;;16.60;;
